Time,TemperatureF,DewpointF,PressureIn,WindDirection,WindDirectionDegrees,WindSpeedMPH,WindSpeedGustMPH,Humidity,HourlyPrecipIn,Conditions,Clouds,dailyrainin,SoftwareType,DateUTC
2013-02-01 00:00:00,35.4,23.7,29.91,WNW,284,10.0,10.0,62,0.00,,,0.72,Wunderground v.1.15,2013-02-01 05:00:00,
2013-02-01 00:03:00,35.4,24.4,29.91,WNW,288,9.0,10.0,64,0.00,,,0.72,Wunderground v.1.15,2013-02-01 05:03:00,
2013-02-01 00:09:00,35.4,24.0,29.91,West,275,9.0,10.0,63,0.00,,,0.72,Wunderground v.1.15,2013-02-01 05:09:00,
2013-02-01 00:14:00,35.3,23.2,29.91,NW,306,7.0,10.0,61,0.00,,,0.00,Wunderground v.1.15,2013-02-01 05:14:00,
2013-02-01 00:16:00,35.3,24.0,29.91,West,280,7.0,10.0,63,0.00,,,0.00,Wunderground v.1.15,2013-02-01 05:16:00,
2013-02-01 00:21:00,35.3,23.2,29.92,WNW,288,7.0,7.0,61,0.00,,,0.00,Wunderground v.1.15,2013-02-01 05:21:00,
2013-02-01 00:27:00,35.3,23.6,29.92,WNW,294,6.0,10.0,62,0.00,,,0.00,Wunderground v.1.15,2013-02-01 05:27:00,
2013-02-01 00:33:00,35.3,23.2,29.92,WNW,284,7.0,7.0,61,0.00,,,0.00,Wunderground v.1.15,2013-02-01 05:33:00,
2013-02-01 00:38:00,35.3,24.0,29.92,WNW,294,5.0,7.0,63,0.00,,,0.00,Wunderground v.1.15,2013-02-01 05:38:00,
2013-02-01 00:44:00,35.3,23.2,29.91,WSW,257,4.0,6.0,61,0.00,,,0.00,Wunderground v.1.15,2013-02-01 05:44:00,
2013-02-01 00:50:00,35.3,24.0,29.90,SW,227,5.0,5.0,63,0.00,,,0.00,Wunderground v.1.15,2013-02-01 05:50:00,
2013-02-01 00:56:00,35.2,23.5,29.89,SW,232,4.0,6.0,62,0.00,,,0.00,Wunderground v.1.15,2013-02-01 05:56:00,
2013-02-01 01:01:00,35.2,23.1,29.90,SW,232,3.0,4.0,61,0.00,,,0.00,Wunderground v.1.15,2013-02-01 06:01:00,
2013-02-01 01:07:00,35.1,23.4,29.88,SSW,213,5.0,7.0,62,0.00,,,0.00,Wunderground v.1.15,2013-02-01 06:07:00,
2013-02-01 01:13:00,35.0,24.0,29.89,SSW,213,5.0,7.0,64,0.00,,,0.00,Wunderground v.1.15,2013-02-01 06:13:00,
2013-02-01 01:18:00,35.0,23.7,29.88,SSW,213,4.0,7.0,63,0.00,,,0.00,Wunderground v.1.15,2013-02-01 06:18:00,
2013-02-01 01:24:00,35.1,24.1,29.89,SSW,213,5.0,5.0,64,0.00,,,0.00,Wunderground v.1.15,2013-02-01 06:24:00,
2013-02-01 01:30:00,35.1,23.8,29.89,SSW,213,7.0,7.0,63,0.00,,,0.00,Wunderground v.1.15,2013-02-01 06:30:00,
2013-02-01 01:35:00,35.1,23.0,29.89,SSW,212,6.0,9.0,61,0.00,,,0.00,Wunderground v.1.15,2013-02-01 06:35:00,
2013-02-01 01:41:00,35.2,24.2,29.89,South,186,5.0,10.0,64,0.00,,,0.00,Wunderground v.1.15,2013-02-01 06:41:00,
2013-02-01 01:46:00,35.1,23.8,29.89,South,179,5.0,12.0,63,0.00,,,0.00,Wunderground v.1.15,2013-02-01 06:46:00,
2013-02-01 01:52:00,34.9,23.6,29.89,South,189,6.0,7.0,63,0.00,,,0.00,Wunderground v.1.15,2013-02-01 06:52:00,
2013-02-01 01:58:00,35.0,25.1,29.89,SSW,192,10.0,11.0,67,0.00,,,0.00,Wunderground v.1.15,2013-02-01 06:58:00,
2013-02-01 02:03:00,35.1,24.5,29.89,South,187,4.0,10.0,65,0.00,,,0.00,Wunderground v.1.15,2013-02-01 07:03:00,
2013-02-01 02:08:00,35.3,25.1,29.89,South,191,11.0,13.0,66,0.00,,,0.00,Wunderground v.1.15,2013-02-01 07:08:00,
2013-02-01 02:13:00,35.6,26.1,29.89,South,184,6.0,13.0,68,0.00,,,0.00,Wunderground v.1.15,2013-02-01 07:13:00,
2013-02-01 02:18:00,35.7,25.4,29.89,SSW,200,13.0,13.0,66,0.00,,,0.00,Wunderground v.1.15,2013-02-01 07:18:00,
2013-02-01 02:23:00,35.9,26.0,29.89,SSW,199,11.0,15.0,67,0.00,,,0.00,Wunderground v.1.15,2013-02-01 07:23:00,
2013-02-01 02:28:00,36.2,26.6,29.89,SSW,198,13.0,15.0,68,0.00,,,0.00,Wunderground v.1.15,2013-02-01 07:28:00,
2013-02-01 02:33:00,36.4,27.9,29.89,South,188,12.0,14.0,71,0.00,,,0.00,Wunderground v.1.15,2013-02-01 07:33:00,
2013-02-01 02:38:00,36.5,27.3,29.89,SSW,198,11.0,16.0,69,0.00,,,0.00,Wunderground v.1.15,2013-02-01 07:38:00,
2013-02-01 02:43:00,36.6,27.7,29.88,SSW,196,11.0,17.0,70,0.00,,,0.00,Wunderground v.1.15,2013-02-01 07:43:00,
2013-02-01 02:48:00,36.4,26.8,29.87,South,179,9.0,17.0,68,0.00,,,0.00,Wunderground v.1.15,2013-02-01 07:48:00,
2013-02-01 02:53:00,36.2,26.6,29.87,South,180,10.0,11.0,68,0.00,,,0.00,Wunderground v.1.15,2013-02-01 07:53:00,
2013-02-01 02:58:00,36.1,26.9,29.86,South,182,3.0,13.0,69,0.00,,,0.00,Wunderground v.1.15,2013-02-01 07:58:00,
2013-02-01 03:03:00,35.9,26.7,29.86,South,184,4.0,11.0,69,0.00,,,0.00,Wunderground v.1.15,2013-02-01 08:03:00,
2013-02-01 03:08:00,35.8,26.6,29.86,South,175,5.0,11.0,69,0.00,,,0.00,Wunderground v.1.15,2013-02-01 08:08:00,
2013-02-01 03:13:00,35.7,26.5,29.85,SSE,161,3.0,11.0,69,0.00,,,0.00,Wunderground v.1.15,2013-02-01 08:13:00,
2013-02-01 03:18:00,35.8,26.6,29.86,South,171,6.0,13.0,69,0.00,,,0.00,Wunderground v.1.15,2013-02-01 08:18:00,
2013-02-01 03:23:00,35.9,26.7,29.85,South,180,8.0,11.0,69,0.00,,,0.00,Wunderground v.1.15,2013-02-01 08:23:00,
2013-02-01 03:28:00,36.0,27.2,29.86,South,183,13.0,16.0,70,0.00,,,0.00,Wunderground v.1.15,2013-02-01 08:28:00,
2013-02-01 03:33:00,36.2,27.7,29.85,South,171,6.0,13.0,71,0.00,,,0.00,Wunderground v.1.15,2013-02-01 08:33:00,
2013-02-01 03:38:00,36.2,27.7,29.84,SSE,167,6.0,14.0,71,0.00,,,0.00,Wunderground v.1.15,2013-02-01 08:38:00,
2013-02-01 03:43:00,36.3,28.1,29.84,South,179,14.0,16.0,72,0.00,,,0.00,Wunderground v.1.15,2013-02-01 08:43:00,
2013-02-01 03:48:00,36.4,28.2,29.83,South,180,6.0,16.0,72,0.00,,,0.00,Wunderground v.1.15,2013-02-01 08:48:00,
2013-02-01 03:53:00,36.5,28.3,29.83,SSE,160,5.0,12.0,72,0.00,,,0.00,Wunderground v.1.15,2013-02-01 08:53:00,
2013-02-01 03:58:00,36.6,28.4,29.83,South,184,8.0,13.0,72,0.00,,,0.00,Wunderground v.1.15,2013-02-01 08:58:00,
2013-02-01 04:03:00,36.7,28.2,29.83,South,176,9.0,15.0,71,0.00,,,0.00,Wunderground v.1.15,2013-02-01 09:03:00,
2013-02-01 04:08:00,36.8,28.3,29.83,South,184,8.0,15.0,71,0.00,,,0.00,Wunderground v.1.15,2013-02-01 09:08:00,
2013-02-01 04:13:00,36.8,28.3,29.83,South,178,9.0,12.0,71,0.00,,,0.00,Wunderground v.1.15,2013-02-01 09:13:00,
2013-02-01 04:18:00,36.9,28.7,29.82,South,183,8.0,12.0,72,0.00,,,0.00,Wunderground v.1.15,2013-02-01 09:18:00,
2013-02-01 04:23:00,36.9,28.7,29.82,South,178,4.0,11.0,72,0.00,,,0.00,Wunderground v.1.15,2013-02-01 09:23:00,
2013-02-01 04:28:00,37.1,29.2,29.82,South,186,6.0,14.0,73,0.00,,,0.00,Wunderground v.1.15,2013-02-01 09:28:00,
2013-02-01 04:33:00,37.4,29.9,29.81,SSW,202,11.0,13.0,74,0.00,,,0.00,Wunderground v.1.15,2013-02-01 09:33:00,
2013-02-01 04:38:00,37.6,30.1,29.81,SSW,208,12.0,13.0,74,0.00,,,0.00,Wunderground v.1.15,2013-02-01 09:38:00,
2013-02-01 04:43:00,37.8,29.9,29.81,WSW,237,11.0,13.0,73,0.00,,,0.00,Wunderground v.1.15,2013-02-01 09:43:00,
2013-02-01 04:48:00,38.1,30.5,29.81,SW,219,12.0,14.0,74,0.00,,,0.00,Wunderground v.1.15,2013-02-01 09:48:00,
2013-02-01 04:53:00,38.3,31.1,29.80,SW,217,16.0,24.0,75,0.00,,,0.00,Wunderground v.1.15,2013-02-01 09:53:00,
2013-02-01 04:58:00,38.3,30.7,29.80,WSW,246,6.0,24.0,74,0.00,,,0.00,Wunderground v.1.15,2013-02-01 09:58:00,
2013-02-01 05:03:00,38.3,30.4,29.80,SW,222,7.0,13.0,73,0.00,,,0.00,Wunderground v.1.15,2013-02-01 10:03:00,
2013-02-01 05:08:00,38.3,31.4,29.80,SSW,210,9.0,13.0,76,0.00,,,0.00,Wunderground v.1.15,2013-02-01 10:08:00,
2013-02-01 05:13:00,38.3,30.4,29.80,South,185,7.0,11.0,73,0.00,,,0.00,Wunderground v.1.15,2013-02-01 10:13:00,
2013-02-01 05:18:00,38.1,29.2,29.80,South,170,2.0,11.0,70,0.00,,,0.00,Wunderground v.1.15,2013-02-01 10:18:00,
2013-02-01 05:23:00,37.9,29.3,29.80,SE,131,2.0,6.0,71,0.00,,,0.00,Wunderground v.1.15,2013-02-01 10:23:00,
2013-02-01 05:28:00,37.7,29.8,29.79,SE,140,0.0,6.0,73,0.00,,,0.00,Wunderground v.1.15,2013-02-01 10:28:00,
2013-02-01 05:33:00,37.5,29.6,29.79,SE,145,1.0,4.0,73,0.00,,,0.00,Wunderground v.1.15,2013-02-01 10:33:00,
2013-02-01 05:38:00,37.3,29.8,29.79,SE,138,2.0,4.0,74,0.00,,,0.00,Wunderground v.1.15,2013-02-01 10:38:00,
2013-02-01 05:43:00,37.1,29.9,29.79,SE,140,0.0,4.0,75,0.00,,,0.00,Wunderground v.1.15,2013-02-01 10:43:00,
2013-02-01 05:48:00,36.9,30.0,29.79,SE,140,0.0,4.0,76,0.00,,,0.00,Wunderground v.1.15,2013-02-01 10:48:00,
2013-02-01 05:53:00,36.8,29.9,29.80,SE,140,0.0,1.0,76,0.00,,,0.00,Wunderground v.1.15,2013-02-01 10:53:00,
2013-02-01 05:58:00,36.7,29.8,29.80,SW,221,7.0,16.0,76,0.00,,,0.00,Wunderground v.1.15,2013-02-01 10:58:00,
2013-02-01 06:03:00,37.0,31.4,29.81,WSW,242,12.0,14.0,80,0.00,,,0.00,Wunderground v.1.15,2013-02-01 11:03:00,
2013-02-01 06:08:00,37.2,31.9,29.81,WSW,246,12.0,14.0,81,0.00,,,0.00,Wunderground v.1.15,2013-02-01 11:08:00,
2013-02-01 06:13:00,37.3,32.3,29.81,SW,233,15.0,16.0,82,0.00,,,0.00,Wunderground v.1.15,2013-02-01 11:13:00,
2013-02-01 06:19:00,37.0,32.6,29.82,WNW,295,17.0,20.0,84,0.00,,,0.00,Wunderground v.1.15,2013-02-01 11:19:00,
2013-02-01 06:24:00,36.1,32.3,29.82,NW,313,15.0,18.0,86,0.00,,,0.00,Wunderground v.1.15,2013-02-01 11:24:00,
2013-02-01 06:29:00,35.1,31.9,29.82,WNW,301,13.0,18.0,88,0.00,,,0.00,Wunderground v.1.15,2013-02-01 11:29:00,
2013-02-01 06:34:00,34.6,32.0,29.83,WNW,294,13.0,15.0,90,0.00,,,0.00,Wunderground v.1.15,2013-02-01 11:34:00,
2013-02-01 06:39:00,34.4,32.3,29.83,WNW,296,13.0,15.0,92,0.00,,,0.00,Wunderground v.1.15,2013-02-01 11:39:00,
2013-02-01 06:44:00,34.4,32.6,29.83,WNW,292,14.0,16.0,93,0.00,,,0.00,Wunderground v.1.15,2013-02-01 11:44:00,
2013-02-01 06:49:00,34.4,32.6,29.83,WNW,288,16.0,17.0,93,0.00,,,0.00,Wunderground v.1.15,2013-02-01 11:49:00,
2013-02-01 06:54:00,34.3,32.8,29.84,WNW,290,14.0,16.0,94,0.00,,,0.00,Wunderground v.1.15,2013-02-01 11:54:00,
2013-02-01 06:59:00,34.2,32.7,29.83,WNW,300,13.0,16.0,94,0.00,,,0.00,Wunderground v.1.15,2013-02-01 11:59:00,
2013-02-01 07:04:00,34.1,32.8,29.84,WNW,297,13.0,15.0,95,0.00,,,0.00,Wunderground v.1.15,2013-02-01 12:04:00,
2013-02-01 07:09:00,34.0,32.7,29.84,NW,308,11.0,15.0,95,0.00,,,0.00,Wunderground v.1.15,2013-02-01 12:09:00,
2013-02-01 07:14:00,34.1,32.8,29.84,NW,304,12.0,14.0,95,0.00,,,0.00,Wunderground v.1.15,2013-02-01 12:14:00,
2013-02-01 07:19:00,33.8,32.5,29.84,WNW,292,12.0,15.0,95,0.00,,,0.00,Wunderground v.1.15,2013-02-01 12:19:00,
2013-02-01 07:24:00,33.9,32.6,29.85,WNW,298,16.0,17.0,95,0.00,,,0.00,Wunderground v.1.15,2013-02-01 12:24:00,
2013-02-01 07:29:00,34.1,32.8,29.85,WNW,292,15.0,17.0,95,0.00,,,0.00,Wunderground v.1.15,2013-02-01 12:29:00,
2013-02-01 07:34:00,33.9,32.6,29.86,WNW,300,14.0,17.0,95,0.00,,,0.00,Wunderground v.1.15,2013-02-01 12:34:00,
2013-02-01 07:39:00,33.8,32.8,29.86,WNW,294,16.0,19.0,96,0.00,,,0.00,Wunderground v.1.15,2013-02-01 12:39:00,
2013-02-01 07:44:00,33.4,32.1,29.88,NNW,329,23.0,28.0,95,0.00,,,0.00,Wunderground v.1.15,2013-02-01 12:44:00,
2013-02-01 07:49:00,32.3,31.0,29.88,NNW,328,21.0,28.0,95,0.00,,,0.00,Wunderground v.1.15,2013-02-01 12:49:00,
2013-02-01 07:54:00,32.0,30.7,29.88,NW,313,20.0,27.0,95,0.00,,,0.00,Wunderground v.1.15,2013-02-01 12:54:00,
2013-02-01 07:59:00,32.2,30.9,29.89,NNW,329,20.0,27.0,95,0.00,,,0.00,Wunderground v.1.15,2013-02-01 12:59:00,
2013-02-01 08:04:00,32.1,30.8,29.89,NW,325,18.0,25.0,95,0.00,,,0.00,Wunderground v.1.15,2013-02-01 13:04:00,
2013-02-01 08:09:00,32.0,30.7,29.90,NNW,328,20.0,25.0,95,0.00,,,0.00,Wunderground v.1.15,2013-02-01 13:09:00,
2013-02-01 08:14:00,32.0,30.7,29.90,NNW,329,20.0,25.0,95,0.00,,,0.00,Wunderground v.1.15,2013-02-01 13:14:00,
2013-02-01 08:19:00,32.0,30.5,29.91,NW,318,21.0,25.0,94,0.00,,,0.00,Wunderground v.1.15,2013-02-01 13:19:00,
2013-02-01 08:24:00,31.6,30.1,29.91,NW,311,24.0,30.0,94,0.00,,,0.00,Wunderground v.1.15,2013-02-01 13:24:00,
2013-02-01 08:29:00,31.5,29.7,29.92,NW,321,20.0,30.0,93,0.00,,,0.00,Wunderground v.1.15,2013-02-01 13:29:00,
2013-02-01 08:34:00,31.4,29.9,29.92,NW,313,19.0,24.0,94,0.00,,,0.00,Wunderground v.1.15,2013-02-01 13:34:00,
2013-02-01 08:39:00,31.8,29.7,29.92,NW,314,20.0,24.0,92,0.00,,,0.00,Wunderground v.1.15,2013-02-01 13:39:00,
2013-02-01 08:44:00,32.0,29.1,29.93,NW,317,21.0,26.0,89,0.00,,,0.00,Wunderground v.1.15,2013-02-01 13:44:00,
2013-02-01 08:49:00,32.3,28.6,29.93,NW,322,22.0,26.0,86,0.00,,,0.00,Wunderground v.1.15,2013-02-01 13:49:00,
2013-02-01 08:54:00,32.5,28.2,29.93,NW,319,26.0,32.0,84,0.00,,,0.00,Wunderground v.1.15,2013-02-01 13:54:00,
2013-02-01 08:59:00,32.3,27.1,29.94,NW,311,24.0,32.0,81,0.00,,,0.00,Wunderground v.1.15,2013-02-01 13:59:00,
2013-02-01 09:04:00,32.4,27.5,29.95,NNW,330,24.0,30.0,82,0.00,,,0.00,Wunderground v.1.15,2013-02-01 14:04:00,
2013-02-01 09:09:00,32.4,27.5,29.95,NNW,334,29.0,33.0,82,0.00,,,0.00,Wunderground v.1.15,2013-02-01 14:09:00,
2013-02-01 09:14:00,32.3,27.4,29.95,NW,325,21.0,32.0,82,0.00,,,0.00,Wunderground v.1.15,2013-02-01 14:14:00,
2013-02-01 09:20:00,32.2,27.0,29.95,NW,317,28.0,28.0,81,0.00,,,0.00,Wunderground v.1.15,2013-02-01 14:20:00,
2013-02-01 09:25:00,32.2,27.3,29.96,NNW,338,28.0,33.0,82,0.00,,,0.00,Wunderground v.1.15,2013-02-01 14:25:00,
2013-02-01 09:30:00,32.0,27.1,29.96,NW,315,22.0,26.0,82,0.00,,,0.00,Wunderground v.1.15,2013-02-01 14:30:00,
2013-02-01 09:35:00,31.9,27.6,29.97,NW,317,31.0,36.0,84,0.00,,,0.00,Wunderground v.1.15,2013-02-01 14:35:00,
2013-02-01 09:40:00,31.8,27.5,29.97,NNW,330,28.0,28.0,84,0.00,,,0.00,Wunderground v.1.15,2013-02-01 14:40:00,
2013-02-01 09:45:00,31.5,26.9,29.98,NNW,329,25.0,36.0,83,0.00,,,0.00,Wunderground v.1.15,2013-02-01 14:45:00,
2013-02-01 09:50:00,31.3,26.4,29.98,NW,323,31.0,31.0,82,0.00,,,0.00,Wunderground v.1.15,2013-02-01 14:50:00,
2013-02-01 09:55:00,31.4,26.2,29.99,NW,315,29.0,31.0,81,0.00,,,0.00,Wunderground v.1.15,2013-02-01 14:55:00,
2013-02-01 10:00:00,31.2,25.1,29.99,NW,323,30.0,37.0,78,0.00,,,0.00,Wunderground v.1.15,2013-02-01 15:00:00,
2013-02-01 10:05:00,31.1,24.4,30.00,NW,326,31.0,38.0,76,0.00,,,0.00,Wunderground v.1.15,2013-02-01 15:05:00,
2013-02-01 10:10:00,31.2,24.5,30.00,NW,319,29.0,39.0,76,0.00,,,0.00,Wunderground v.1.15,2013-02-01 15:10:00,
2013-02-01 10:15:00,31.0,23.7,30.00,NNW,329,32.0,39.0,74,0.00,,,0.00,Wunderground v.1.15,2013-02-01 15:15:00,
2013-02-01 10:20:00,31.1,23.8,30.01,NW,323,25.0,30.0,74,0.00,,,0.00,Wunderground v.1.15,2013-02-01 15:20:00,
2013-02-01 10:25:00,30.8,22.8,30.01,NW,311,25.0,34.0,72,0.00,,,0.00,Wunderground v.1.15,2013-02-01 15:25:00,
2013-02-01 10:30:00,30.8,23.2,30.02,NNW,328,27.0,32.0,73,0.00,,,0.00,Wunderground v.1.15,2013-02-01 15:30:00,
2013-02-01 10:35:00,31.0,23.7,30.02,NW,318,20.0,32.0,74,0.00,,,0.00,Wunderground v.1.15,2013-02-01 15:35:00,
2013-02-01 10:40:00,31.2,23.9,30.02,WNW,300,33.0,33.0,74,0.00,,,0.00,Wunderground v.1.15,2013-02-01 15:40:00,
2013-02-01 10:45:00,30.9,22.9,30.02,NW,311,27.0,35.0,72,0.00,,,0.00,Wunderground v.1.15,2013-02-01 15:45:00,
2013-02-01 10:50:00,31.0,24.0,30.02,NW,304,32.0,33.0,75,0.00,,,0.00,Wunderground v.1.15,2013-02-01 15:50:00,
2013-02-01 10:55:00,30.7,22.7,30.03,NW,313,29.0,37.0,72,0.00,,,0.00,Wunderground v.1.15,2013-02-01 15:55:00,
2013-02-01 11:00:00,30.3,21.7,30.03,NW,311,25.0,31.0,70,0.00,,,0.00,Wunderground v.1.15,2013-02-01 16:00:00,
2013-02-01 11:05:00,30.3,21.7,30.04,NW,315,29.0,35.0,70,0.00,,,0.00,Wunderground v.1.15,2013-02-01 16:05:00,
2013-02-01 11:10:00,30.3,21.0,30.04,NW,312,27.0,31.0,68,0.00,,,0.00,Wunderground v.1.15,2013-02-01 16:10:00,
2013-02-01 11:15:00,30.3,21.7,30.05,NW,321,36.0,36.0,70,0.00,,,0.00,Wunderground v.1.15,2013-02-01 16:15:00,
2013-02-01 11:20:00,30.3,20.6,30.05,NW,316,27.0,30.0,67,0.00,,,0.00,Wunderground v.1.15,2013-02-01 16:20:00,
2013-02-01 11:25:00,30.2,20.9,30.06,NW,319,30.0,34.0,68,0.00,,,0.00,Wunderground v.1.15,2013-02-01 16:25:00,
2013-02-01 11:30:00,30.1,21.2,30.05,NW,304,27.0,34.0,69,0.00,,,0.00,Wunderground v.1.15,2013-02-01 16:30:00,
2013-02-01 11:35:00,30.2,21.6,30.05,NW,309,30.0,35.0,70,0.00,,,0.00,Wunderground v.1.15,2013-02-01 16:35:00,
2013-02-01 11:40:00,30.3,21.3,30.05,WNW,303,33.0,33.0,69,0.00,,,0.00,Wunderground v.1.15,2013-02-01 16:40:00,
2013-02-01 11:45:00,30.3,21.3,30.05,NW,317,27.0,33.0,69,0.00,,,0.00,Wunderground v.1.15,2013-02-01 16:45:00,
2013-02-01 11:50:00,30.3,21.0,30.05,WNW,303,29.0,34.0,68,0.00,,,0.00,Wunderground v.1.15,2013-02-01 16:50:00,
2013-02-01 11:55:00,30.4,21.1,30.05,WNW,294,35.0,38.0,68,0.00,,,0.00,Wunderground v.1.15,2013-02-01 16:55:00,
2013-02-01 12:00:00,30.6,22.0,30.06,NW,310,29.0,34.0,70,0.00,,,0.00,Wunderground v.1.15,2013-02-01 17:00:00,
2013-02-01 12:06:00,30.4,21.1,30.07,NW,326,28.0,36.0,68,0.00,,,0.00,Wunderground v.1.15,2013-02-01 17:06:00,
2013-02-01 12:11:00,30.0,20.4,30.07,NW,315,35.0,35.0,67,0.00,,,0.00,Wunderground v.1.15,2013-02-01 17:11:00,
2013-02-01 12:16:00,30.1,20.1,30.07,NW,309,32.0,38.0,66,0.00,,,0.00,Wunderground v.1.15,2013-02-01 17:16:00,
2013-02-01 12:21:00,30.2,20.2,30.07,WNW,302,28.0,33.0,66,0.00,,,0.00,Wunderground v.1.15,2013-02-01 17:21:00,
2013-02-01 12:26:00,30.1,20.1,30.08,NW,311,27.0,33.0,66,0.00,,,0.00,Wunderground v.1.15,2013-02-01 17:26:00,
2013-02-01 12:31:00,30.2,20.6,30.08,NW,311,24.0,31.0,67,0.00,,,0.00,Wunderground v.1.15,2013-02-01 17:31:00,
2013-02-01 12:36:00,30.2,20.6,30.08,NW,318,33.0,35.0,67,0.00,,,0.00,Wunderground v.1.15,2013-02-01 17:36:00,
2013-02-01 12:41:00,30.4,21.1,30.08,NW,317,24.0,29.0,68,0.00,,,0.00,Wunderground v.1.15,2013-02-01 17:41:00,
2013-02-01 12:46:00,30.3,20.3,30.08,NW,315,27.0,37.0,66,0.00,,,0.00,Wunderground v.1.15,2013-02-01 17:46:00,
2013-02-01 12:51:00,30.2,20.2,30.08,NW,311,27.0,29.0,66,0.00,,,0.00,Wunderground v.1.15,2013-02-01 17:51:00,
2013-02-01 12:56:00,30.3,21.0,30.09,NW,313,30.0,33.0,68,0.00,,,0.00,Wunderground v.1.15,2013-02-01 17:56:00,
2013-02-01 13:01:00,30.4,21.1,30.09,NW,312,29.0,33.0,68,0.00,,,0.00,Wunderground v.1.15,2013-02-01 18:01:00,
2013-02-01 13:06:00,30.3,21.0,30.09,NW,318,27.0,33.0,68,0.00,,,0.00,Wunderground v.1.15,2013-02-01 18:06:00,
2013-02-01 13:11:00,30.3,21.0,30.09,NW,311,25.0,29.0,68,0.00,,,0.00,Wunderground v.1.15,2013-02-01 18:11:00,
2013-02-01 13:16:00,30.1,20.1,30.09,NW,310,24.0,33.0,66,0.00,,,0.00,Wunderground v.1.15,2013-02-01 18:16:00,
2013-02-01 13:21:00,30.2,20.9,30.09,NW,304,25.0,29.0,68,0.00,,,0.00,Wunderground v.1.15,2013-02-01 18:21:00,
2013-02-01 13:26:00,30.1,20.1,30.09,NW,321,25.0,32.0,66,0.00,,,0.00,Wunderground v.1.15,2013-02-01 18:26:00,
2013-02-01 13:31:00,30.2,19.8,30.10,NW,316,23.0,30.0,65,0.00,,,0.00,Wunderground v.1.15,2013-02-01 18:31:00,
2013-02-01 13:36:00,30.1,20.5,30.10,NW,309,29.0,32.0,67,0.00,,,0.00,Wunderground v.1.15,2013-02-01 18:36:00,
2013-02-01 13:41:00,30.1,20.5,30.10,NW,315,27.0,31.0,67,0.00,,,0.00,Wunderground v.1.15,2013-02-01 18:41:00,
2013-02-01 13:46:00,30.1,19.7,30.10,WNW,295,26.0,31.0,65,0.00,,,0.00,Wunderground v.1.15,2013-02-01 18:46:00,
2013-02-01 13:51:00,29.9,19.2,30.10,WNW,302,24.0,27.0,64,0.00,,,0.00,Wunderground v.1.15,2013-02-01 18:51:00,
2013-02-01 13:56:00,29.9,19.9,30.10,NW,310,27.0,33.0,66,0.00,,,0.00,Wunderground v.1.15,2013-02-01 18:56:00,
2013-02-01 14:01:00,30.1,20.5,30.10,WNW,285,28.0,31.0,67,0.00,,,0.00,Wunderground v.1.15,2013-02-01 19:01:00,
2013-02-01 14:06:00,30.1,20.5,30.10,NW,316,29.0,33.0,67,0.00,,,0.00,Wunderground v.1.15,2013-02-01 19:06:00,
2013-02-01 14:11:00,30.3,21.3,30.10,NW,309,28.0,31.0,69,0.00,,,0.00,Wunderground v.1.15,2013-02-01 19:11:00,
2013-02-01 14:16:00,30.1,20.1,30.11,WNW,292,27.0,32.0,66,0.00,,,0.00,Wunderground v.1.15,2013-02-01 19:16:00,
2013-02-01 14:21:00,30.1,20.5,30.11,WNW,295,23.0,33.0,67,0.00,,,0.00,Wunderground v.1.15,2013-02-01 19:21:00,
2013-02-01 14:26:00,30.0,20.4,30.12,NW,304,24.0,33.0,67,0.00,,,0.00,Wunderground v.1.15,2013-02-01 19:26:00,
2013-02-01 14:31:00,29.9,20.6,30.12,NW,310,24.0,30.0,68,0.00,,,0.00,Wunderground v.1.15,2013-02-01 19:31:00,
2013-02-01 14:36:00,29.9,20.3,30.12,NW,315,29.0,32.0,67,0.00,,,0.00,Wunderground v.1.15,2013-02-01 19:36:00,
2013-02-01 14:41:00,29.9,20.6,30.12,WNW,295,22.0,29.0,68,0.00,,,0.00,Wunderground v.1.15,2013-02-01 19:41:00,
2013-02-01 14:46:00,30.0,20.4,30.13,WNW,296,28.0,31.0,67,0.00,,,0.00,Wunderground v.1.15,2013-02-01 19:46:00,
2013-02-01 14:51:00,30.0,20.0,30.13,WNW,298,26.0,29.0,66,0.00,,,0.00,Wunderground v.1.15,2013-02-01 19:51:00,
2013-02-01 14:56:00,30.0,20.0,30.13,WNW,291,23.0,29.0,66,0.00,,,0.00,Wunderground v.1.15,2013-02-01 19:56:00,
2013-02-01 15:01:00,30.2,20.6,30.14,NW,312,28.0,33.0,67,0.00,,,0.00,Wunderground v.1.15,2013-02-01 20:01:00,
2013-02-01 15:06:00,30.1,20.1,30.14,WNW,298,26.0,33.0,66,0.00,,,0.00,Wunderground v.1.15,2013-02-01 20:06:00,
2013-02-01 15:11:00,30.1,19.7,30.14,NW,310,24.0,27.0,65,0.00,,,0.00,Wunderground v.1.15,2013-02-01 20:11:00,
2013-02-01 15:16:00,30.1,20.8,30.15,WNW,290,22.0,31.0,68,0.00,,,0.00,Wunderground v.1.15,2013-02-01 20:16:00,
2013-02-01 15:21:00,30.0,19.3,30.15,WNW,302,27.0,30.0,64,0.00,,,0.00,Wunderground v.1.15,2013-02-01 20:21:00,
2013-02-01 15:26:00,30.0,19.7,30.16,NW,313,24.0,30.0,65,0.00,,,0.00,Wunderground v.1.15,2013-02-01 20:26:00,
2013-02-01 15:31:00,29.8,19.8,30.16,WNW,298,22.0,24.0,66,0.00,,,0.00,Wunderground v.1.15,2013-02-01 20:31:00,
2013-02-01 15:37:00,30.0,19.7,30.16,NW,307,23.0,30.0,65,0.00,,,0.00,Wunderground v.1.15,2013-02-01 20:37:00,
2013-02-01 15:42:00,29.9,19.6,30.16,WNW,299,25.0,29.0,65,0.00,,,0.00,Wunderground v.1.15,2013-02-01 20:42:00,
2013-02-01 15:47:00,30.2,20.2,30.16,West,281,23.0,29.0,66,0.00,,,0.00,Wunderground v.1.15,2013-02-01 20:47:00,
2013-02-01 15:52:00,30.1,20.1,30.16,NW,304,24.0,30.0,66,0.00,,,0.00,Wunderground v.1.15,2013-02-01 20:52:00,
2013-02-01 15:57:00,29.8,18.7,30.17,WNW,300,25.0,33.0,63,0.00,,,0.00,Wunderground v.1.15,2013-02-01 20:57:00,
2013-02-01 16:02:00,29.8,19.5,30.17,WNW,289,25.0,29.0,65,0.00,,,0.00,Wunderground v.1.15,2013-02-01 21:02:00,
2013-02-01 16:08:00,30.0,20.0,30.17,WNW,295,25.0,30.0,66,0.00,,,0.00,Wunderground v.1.15,2013-02-01 21:08:00,
2013-02-01 16:13:00,30.0,20.0,30.18,NW,305,26.0,30.0,66,0.00,,,0.00,Wunderground v.1.15,2013-02-01 21:13:00,
2013-02-01 16:18:00,30.1,19.4,30.18,NW,315,21.0,31.0,64,0.00,,,0.00,Wunderground v.1.15,2013-02-01 21:18:00,
2013-02-01 16:23:00,30.1,20.1,30.18,WNW,298,25.0,29.0,66,0.00,,,0.00,Wunderground v.1.15,2013-02-01 21:23:00,
2013-02-01 16:28:00,30.0,19.7,30.18,WNW,292,19.0,31.0,65,0.00,,,0.00,Wunderground v.1.15,2013-02-01 21:28:00,
2013-02-01 16:33:00,29.9,19.9,30.19,WNW,290,20.0,27.0,66,0.00,,,0.00,Wunderground v.1.15,2013-02-01 21:33:00,
2013-02-01 16:38:00,29.8,19.5,30.19,WNW,299,21.0,27.0,65,0.00,,,0.00,Wunderground v.1.15,2013-02-01 21:38:00,
2013-02-01 16:43:00,29.9,20.3,30.19,WNW,298,28.0,29.0,67,0.00,,,0.00,Wunderground v.1.15,2013-02-01 21:43:00,
2013-02-01 16:48:00,29.9,19.6,30.19,NW,309,26.0,30.0,65,0.00,,,0.00,Wunderground v.1.15,2013-02-01 21:48:00,
2013-02-01 16:53:00,29.8,19.5,30.20,WNW,300,27.0,29.0,65,0.00,,,0.00,Wunderground v.1.15,2013-02-01 21:53:00,
2013-02-01 16:58:00,29.7,18.6,30.20,NW,311,27.0,29.0,63,0.00,,,0.00,Wunderground v.1.15,2013-02-01 21:58:00,
2013-02-01 17:03:00,29.5,18.4,30.20,WNW,300,18.0,24.0,63,0.00,,,0.00,Wunderground v.1.15,2013-02-01 22:03:00,
2013-02-01 17:08:00,29.6,18.5,30.20,NW,306,27.0,31.0,63,0.00,,,0.00,Wunderground v.1.15,2013-02-01 22:08:00,
2013-02-01 17:13:00,29.6,17.8,30.21,NW,305,21.0,29.0,61,0.00,,,0.00,Wunderground v.1.15,2013-02-01 22:13:00,
2013-02-01 17:18:00,29.6,18.9,30.21,NW,306,25.0,29.0,64,0.00,,,0.00,Wunderground v.1.15,2013-02-01 22:18:00,
2013-02-01 17:23:00,29.4,18.3,30.21,NW,308,20.0,26.0,63,0.00,,,0.00,Wunderground v.1.15,2013-02-01 22:23:00,
2013-02-01 17:28:00,29.4,18.3,30.21,WNW,292,23.0,33.0,63,0.00,,,0.00,Wunderground v.1.15,2013-02-01 22:28:00,
2013-02-01 17:33:00,29.6,19.6,30.22,WNW,303,23.0,27.0,66,0.00,,,0.00,Wunderground v.1.15,2013-02-01 22:33:00,
2013-02-01 17:38:00,29.5,18.4,30.22,WNW,294,20.0,29.0,63,0.00,,,0.00,Wunderground v.1.15,2013-02-01 22:38:00,
2013-02-01 17:43:00,29.3,18.6,30.22,NW,306,19.0,28.0,64,0.00,,,0.00,Wunderground v.1.15,2013-02-01 22:43:00,
2013-02-01 17:48:00,29.4,18.7,30.22,WNW,302,24.0,28.0,64,0.00,,,0.00,Wunderground v.1.15,2013-02-01 22:48:00,
2013-02-01 17:53:00,29.3,18.3,30.23,NW,307,26.0,28.0,63,0.00,,,0.00,Wunderground v.1.15,2013-02-01 22:53:00,
2013-02-01 17:58:00,29.3,19.3,30.23,NW,311,23.0,28.0,66,0.00,,,0.00,Wunderground v.1.15,2013-02-01 22:58:00,
2013-02-01 18:03:00,29.3,18.3,30.24,WNW,303,20.0,26.0,63,0.00,,,0.00,Wunderground v.1.15,2013-02-01 23:03:00,
2013-02-01 18:08:00,29.4,19.4,30.24,NW,306,27.0,30.0,66,0.00,,,0.00,Wunderground v.1.15,2013-02-01 23:08:00,
2013-02-01 18:13:00,29.5,19.5,30.24,NW,314,21.0,27.0,66,0.00,,,0.00,Wunderground v.1.15,2013-02-01 23:13:00,
2013-02-01 18:18:00,29.3,19.0,30.25,NW,313,21.0,30.0,65,0.00,,,0.00,Wunderground v.1.15,2013-02-01 23:18:00,
2013-02-01 18:23:00,29.2,18.9,30.25,NW,315,21.0,28.0,65,0.00,,,0.00,Wunderground v.1.15,2013-02-01 23:23:00,
2013-02-01 18:28:00,29.0,18.0,30.25,NW,314,18.0,28.0,63,0.00,,,0.00,Wunderground v.1.15,2013-02-01 23:28:00,
2013-02-01 18:33:00,29.0,18.7,30.25,WNW,300,18.0,25.0,65,0.00,,,0.00,Wunderground v.1.15,2013-02-01 23:33:00,
2013-02-01 18:38:00,29.0,18.3,30.26,WNW,297,22.0,27.0,64,0.00,,,0.00,Wunderground v.1.15,2013-02-01 23:38:00,
2013-02-01 18:43:00,29.0,19.4,30.26,WNW,300,19.0,24.0,67,0.00,,,0.00,Wunderground v.1.15,2013-02-01 23:43:00,
2013-02-01 18:48:00,28.9,18.2,30.27,NW,321,21.0,27.0,64,0.00,,,0.00,Wunderground v.1.15,2013-02-01 23:48:00,
2013-02-01 18:53:00,29.0,19.1,30.27,WNW,302,21.0,24.0,66,0.00,,,0.00,Wunderground v.1.15,2013-02-01 23:53:00,
2013-02-01 18:58:00,28.9,18.2,30.27,NW,314,23.0,26.0,64,0.00,,,0.00,Wunderground v.1.15,2013-02-01 23:58:00,
2013-02-01 19:03:00,28.6,17.2,30.27,WNW,299,20.0,23.0,62,0.00,,,0.00,Wunderground v.1.15,2013-02-02 00:03:00,
2013-02-01 19:08:00,28.7,18.8,30.27,WNW,300,23.0,24.0,66,0.00,,,0.00,Wunderground v.1.15,2013-02-02 00:08:00,
2013-02-01 19:13:00,28.7,19.1,30.28,NW,309,22.0,28.0,67,0.00,,,0.00,Wunderground v.1.15,2013-02-02 00:13:00,
2013-02-01 19:18:00,28.4,17.4,30.28,NW,310,19.0,28.0,63,0.00,,,0.00,Wunderground v.1.15,2013-02-02 00:18:00,
2013-02-01 19:23:00,28.3,18.4,30.29,NW,322,17.0,22.0,66,0.00,,,0.00,Wunderground v.1.15,2013-02-02 00:23:00,
2013-02-01 19:28:00,28.3,17.7,30.29,NW,316,17.0,30.0,64,0.00,,,0.00,Wunderground v.1.15,2013-02-02 00:28:00,
2013-02-01 19:33:00,28.4,18.8,30.29,NW,306,20.0,24.0,67,0.00,,,0.00,Wunderground v.1.15,2013-02-02 00:33:00,
2013-02-01 19:38:00,28.4,18.5,30.29,NW,317,24.0,26.0,66,0.00,,,0.00,Wunderground v.1.15,2013-02-02 00:38:00,
2013-02-01 19:43:00,28.2,17.6,30.29,NW,311,23.0,27.0,64,0.00,,,0.00,Wunderground v.1.15,2013-02-02 00:43:00,
2013-02-01 19:48:00,28.1,18.5,30.29,WNW,297,20.0,28.0,67,0.00,,,0.00,Wunderground v.1.15,2013-02-02 00:48:00,
2013-02-01 19:53:00,28.0,17.4,30.29,NW,323,18.0,27.0,64,0.00,,,0.00,Wunderground v.1.15,2013-02-02 00:53:00,
2013-02-01 19:58:00,27.9,18.4,30.30,NW,313,22.0,29.0,67,0.00,,,0.00,Wunderground v.1.15,2013-02-02 00:58:00,
2013-02-01 20:03:00,27.8,17.2,30.30,NW,306,19.0,29.0,64,0.00,,,0.00,Wunderground v.1.15,2013-02-02 01:03:00,
2013-02-01 20:08:00,27.7,17.8,30.30,WNW,303,22.0,29.0,66,0.00,,,0.00,Wunderground v.1.15,2013-02-02 01:08:00,
2013-02-01 20:13:00,27.6,17.7,30.30,NW,317,24.0,27.0,66,0.00,,,0.00,Wunderground v.1.15,2013-02-02 01:13:00,
2013-02-01 20:18:00,27.6,18.4,30.30,NW,313,24.0,27.0,68,0.00,,,0.00,Wunderground v.1.15,2013-02-02 01:18:00,
2013-02-01 20:23:00,27.6,17.7,30.30,NW,313,22.0,27.0,66,0.00,,,0.00,Wunderground v.1.15,2013-02-02 01:23:00,
2013-02-01 20:28:00,27.5,18.0,30.30,NW,320,24.0,27.0,67,0.00,,,0.00,Wunderground v.1.15,2013-02-02 01:28:00,
2013-02-01 20:33:00,27.4,17.5,30.31,NW,311,20.0,23.0,66,0.00,,,0.00,Wunderground v.1.15,2013-02-02 01:33:00,
2013-02-01 20:38:00,27.4,17.5,30.31,NW,320,21.0,25.0,66,0.00,,,0.00,Wunderground v.1.15,2013-02-02 01:38:00,
2013-02-01 20:43:00,27.3,17.4,30.31,NW,311,20.0,26.0,66,0.00,,,0.00,Wunderground v.1.15,2013-02-02 01:43:00,
2013-02-01 20:48:00,27.2,17.3,30.31,WNW,299,20.0,26.0,66,0.00,,,0.00,Wunderground v.1.15,2013-02-02 01:48:00,
2013-02-01 20:53:00,27.2,17.0,30.31,WNW,290,19.0,23.0,65,0.00,,,0.00,Wunderground v.1.15,2013-02-02 01:53:00,
2013-02-01 20:58:00,27.0,16.8,30.31,NW,306,18.0,25.0,65,0.00,,,0.00,Wunderground v.1.15,2013-02-02 01:58:00,
2013-02-01 21:03:00,27.0,17.5,30.32,NW,307,16.0,22.0,67,0.00,,,0.00,Wunderground v.1.15,2013-02-02 02:03:00,
2013-02-01 21:08:00,27.0,17.5,30.32,WNW,287,17.0,22.0,67,0.00,,,0.00,Wunderground v.1.15,2013-02-02 02:08:00,
2013-02-01 21:14:00,26.9,17.4,30.32,NW,321,19.0,25.0,67,0.00,,,0.00,Wunderground v.1.15,2013-02-02 02:14:00,
2013-02-01 21:19:00,26.8,16.6,30.32,NW,311,15.0,25.0,65,0.00,,,0.00,Wunderground v.1.15,2013-02-02 02:19:00,
2013-02-01 21:24:00,26.6,16.4,30.32,NW,308,18.0,25.0,65,0.00,,,0.00,Wunderground v.1.15,2013-02-02 02:24:00,
2013-02-01 21:29:00,26.6,16.8,30.33,WNW,300,23.0,25.0,66,0.00,,,0.00,Wunderground v.1.15,2013-02-02 02:29:00,
2013-02-01 21:34:00,26.6,17.1,30.33,NW,309,19.0,25.0,67,0.00,,,0.00,Wunderground v.1.15,2013-02-02 02:34:00,
2013-02-01 21:39:00,26.5,16.7,30.34,NW,313,18.0,25.0,66,0.00,,,0.00,Wunderground v.1.15,2013-02-02 02:39:00,
2013-02-01 21:44:00,26.5,16.0,30.34,NW,326,14.0,27.0,64,0.00,,,0.00,Wunderground v.1.15,2013-02-02 02:44:00,
2013-02-01 21:49:00,26.3,16.1,30.34,NW,321,16.0,27.0,65,0.00,,,0.00,Wunderground v.1.15,2013-02-02 02:49:00,
2013-02-01 21:54:00,26.3,16.1,30.34,NW,313,15.0,22.0,65,0.00,,,0.00,Wunderground v.1.15,2013-02-02 02:54:00,
2013-02-01 21:59:00,26.1,15.2,30.34,NW,315,21.0,23.0,63,0.00,,,0.00,Wunderground v.1.15,2013-02-02 02:59:00,
2013-02-01 22:04:00,26.2,16.0,30.34,NW,309,18.0,24.0,65,0.00,,,0.00,Wunderground v.1.15,2013-02-02 03:04:00,
2013-02-01 22:09:00,26.3,16.8,30.34,WNW,302,22.0,25.0,67,0.00,,,0.00,Wunderground v.1.15,2013-02-02 03:09:00,
2013-02-01 22:14:00,26.3,17.2,30.34,NW,311,25.0,26.0,68,0.00,,,0.00,Wunderground v.1.15,2013-02-02 03:14:00,
2013-02-01 22:19:00,26.2,16.7,30.34,NW,304,26.0,28.0,67,0.00,,,0.00,Wunderground v.1.15,2013-02-02 03:19:00,
2013-02-01 22:24:00,26.1,16.3,30.34,NW,311,18.0,25.0,66,0.00,,,0.00,Wunderground v.1.15,2013-02-02 03:24:00,
2013-02-01 22:29:00,26.0,16.2,30.34,NNW,327,17.0,25.0,66,0.00,,,0.00,Wunderground v.1.15,2013-02-02 03:29:00,
2013-02-01 22:34:00,25.8,15.3,30.34,NW,310,18.0,24.0,64,0.00,,,0.00,Wunderground v.1.15,2013-02-02 03:34:00,
2013-02-01 22:39:00,26.0,16.9,30.34,NW,314,23.0,29.0,68,0.00,,,0.00,Wunderground v.1.15,2013-02-02 03:39:00,
2013-02-01 22:44:00,25.9,16.4,30.35,NW,305,18.0,27.0,67,0.00,,,0.00,Wunderground v.1.15,2013-02-02 03:44:00,
2013-02-01 22:49:00,25.7,15.6,30.35,NW,313,20.0,27.0,65,0.00,,,0.00,Wunderground v.1.15,2013-02-02 03:49:00,
2013-02-01 22:54:00,25.6,15.8,30.35,NW,310,20.0,26.0,66,0.00,,,0.00,Wunderground v.1.15,2013-02-02 03:54:00,
2013-02-01 22:59:00,25.7,16.3,30.35,NW,322,20.0,26.0,67,0.00,,,0.00,Wunderground v.1.15,2013-02-02 03:59:00,
2013-02-01 23:04:00,25.5,15.7,30.35,NW,323,21.0,25.0,66,0.00,,,0.00,Wunderground v.1.15,2013-02-02 04:04:00,
2013-02-01 23:09:00,25.4,14.9,30.35,NW,310,21.0,25.0,64,0.00,,,0.00,Wunderground v.1.15,2013-02-02 04:09:00,
2013-02-01 23:14:00,25.4,15.6,30.35,NNW,329,18.0,24.0,66,0.00,,,0.00,Wunderground v.1.15,2013-02-02 04:14:00,
2013-02-01 23:19:00,25.6,16.5,30.35,NW,323,21.0,25.0,68,0.00,,,0.00,Wunderground v.1.15,2013-02-02 04:19:00,
2013-02-01 23:24:00,25.6,16.5,30.35,NW,321,20.0,24.0,68,0.00,,,0.00,Wunderground v.1.15,2013-02-02 04:24:00,
2013-02-01 23:29:00,25.4,16.0,30.35,NNW,337,20.0,25.0,67,0.00,,,0.00,Wunderground v.1.15,2013-02-02 04:29:00,
2013-02-01 23:34:00,25.3,15.5,30.36,NW,322,20.0,22.0,66,0.00,,,0.00,Wunderground v.1.15,2013-02-02 04:34:00,
2013-02-01 23:39:00,25.4,16.3,30.36,WNW,298,21.0,25.0,68,0.00,,,0.00,Wunderground v.1.15,2013-02-02 04:39:00,
2013-02-01 23:44:00,25.5,16.7,30.36,NW,321,19.0,19.0,69,0.00,,,0.00,Wunderground v.1.15,2013-02-02 04:44:00,
2013-02-01 23:49:00,25.5,16.7,30.36,NW,310,18.0,22.0,69,0.00,,,0.00,Wunderground v.1.15,2013-02-02 04:49:00,
2013-02-01 23:54:00,25.3,15.9,30.36,NW,313,19.0,24.0,67,0.00,,,0.00,Wunderground v.1.15,2013-02-02 04:54:00,
2013-02-01 23:59:00,25.2,16.1,30.36,WNW,301,18.0,24.0,68,0.00,,,0.00,Wunderground v.1.15,2013-02-02 04:59:00,